createdAt,value
2022-10-18T00:00:41.562Z,28.30
2022-10-18T00:01:43.932Z,28.27
2022-10-18T00:02:45.675Z,28.61
2022-10-18T00:03:47.502Z,28.56
2022-10-18T00:04:49.253Z,28.75
2022-10-18T00:05:51.258Z,28.01
2022-10-18T00:06:52.947Z,28.82
2022-10-18T00:07:54.683Z,28.01
2022-10-18T00:08:56.481Z,28.57
2022-10-18T00:09:58.161Z,28.62
2022-10-18T00:10:59.823Z,28.80
2022-10-18T00:12:01.687Z,28.70
2022-10-18T00:13:03.691Z,28.60
2022-10-18T00:14:05.424Z,28.26
2022-10-18T00:15:08.175Z,28.93
2022-10-18T00:16:15.443Z,28.61
2022-10-18T00:17:17.333Z,28.40
2022-10-18T00:18:19.876Z,28.16
2022-10-18T00:19:24.751Z,28.74
2022-10-18T00:20:29.008Z,28.30
2022-10-18T00:21:30.766Z,28.75
2022-10-18T00:22:35.455Z,28.61
2022-10-18T00:23:37.662Z,28.81
2022-10-18T00:24:39.401Z,28.71
2022-10-18T00:25:41.139Z,28.17
2022-10-18T00:26:42.923Z,28.31
2022-10-18T00:27:44.911Z,28.74
2022-10-18T00:28:50.219Z,28.52
2022-10-18T00:29:55.128Z,29.01
2022-10-18T00:30:56.959Z,28.51
2022-10-18T00:31:58.671Z,28.78
2022-10-18T00:33:00.394Z,29.01
2022-10-18T00:34:05.502Z,28.97
2022-10-18T00:35:08.522Z,29.10
2022-10-18T00:36:11.582Z,28.70
2022-10-18T00:37:13.259Z,28.41
2022-10-18T00:38:15.034Z,28.88
2022-10-18T00:39:18.908Z,28.72
2022-10-18T00:40:20.696Z,28.48
2022-10-18T00:41:25.366Z,28.26
2022-10-18T00:42:32.040Z,28.80
2022-10-18T00:43:50.502Z,28.42
2022-10-18T00:44:52.185Z,28.90
2022-10-18T00:45:53.879Z,28.97
2022-10-18T00:47:03.464Z,29.10
2022-10-18T00:48:05.414Z,28.29
2022-10-18T00:49:17.727Z,28.58
2022-10-18T00:50:21.007Z,28.70
2022-10-18T00:51:23.670Z,29.07
2022-10-18T00:52:35.681Z,28.61
2022-10-18T00:53:38.034Z,28.72
2022-10-18T00:54:44.555Z,29.00
2022-10-18T00:55:46.886Z,28.19
2022-10-18T00:56:49.102Z,28.74
2022-10-18T00:57:51.812Z,28.59
2022-10-18T00:58:54.288Z,28.22
2022-10-18T00:59:56.271Z,29.08
2022-10-18T01:00:57.934Z,28.54
2022-10-18T01:01:59.816Z,29.08
2022-10-18T01:03:01.677Z,29.08
2022-10-18T01:04:03.631Z,28.99
2022-10-18T01:05:06.058Z,29.03
2022-10-18T01:06:09.017Z,28.28
2022-10-18T01:07:25.864Z,28.79
2022-10-18T01:08:27.659Z,28.33
2022-10-18T01:09:45.883Z,28.79
2022-10-18T01:11:04.390Z,28.13
2022-10-18T01:12:33.161Z,28.50
2022-10-18T01:14:02.123Z,28.84
2022-10-18T01:15:13.516Z,28.66
2022-10-18T01:16:53.485Z,28.19
2022-10-18T01:18:12.297Z,28.30
2022-10-18T01:19:38.278Z,28.11
2022-10-18T01:20:49.322Z,28.47
2022-10-18T01:22:19.241Z,28.39
2022-10-18T01:23:38.695Z,28.87
2022-10-18T01:26:29.539Z,28.23
2022-10-18T01:27:55.447Z,27.99
2022-10-18T01:29:11.879Z,28.21
2022-10-18T01:30:32.129Z,28.06
2022-10-18T01:31:44.190Z,28.79
2022-10-18T01:32:50.842Z,28.17
2022-10-18T01:33:58.602Z,28.84
2022-10-18T01:35:06.265Z,28.42
2022-10-18T01:36:17.638Z,28.59
2022-10-18T01:37:22.013Z,28.67
2022-10-18T01:38:25.563Z,28.97
2022-10-18T01:39:32.042Z,28.34
2022-10-18T01:40:35.794Z,28.43
2022-10-18T01:41:41.361Z,28.97
2022-10-18T01:42:45.674Z,28.91
2022-10-18T01:43:51.704Z,29.15
2022-10-18T01:44:55.040Z,28.20
2022-10-18T01:45:59.698Z,28.71
2022-10-18T01:47:01.494Z,28.88
2022-10-18T01:48:03.809Z,28.51
2022-10-18T01:49:05.791Z,28.81
2022-10-18T01:50:07.889Z,28.89
2022-10-18T01:51:10.295Z,28.80
2022-10-18T01:52:16.444Z,28.56
2022-10-18T01:53:23.353Z,28.73
2022-10-18T01:54:34.104Z,28.67
2022-10-18T01:55:46.339Z,28.74
2022-10-18T01:57:24.482Z,28.78
2022-10-18T01:58:37.248Z,28.68
2022-10-18T02:00:00.997Z,28.20
2022-10-18T02:02:36.954Z,28.21
2022-10-18T02:03:46.087Z,28.49
2022-10-18T02:05:08.851Z,28.54
2022-10-18T02:06:27.249Z,28.75
2022-10-18T02:08:12.365Z,28.17
2022-10-18T02:09:33.347Z,29.01
2022-10-18T02:10:48.551Z,28.32
2022-10-18T02:11:54.057Z,28.84
2022-10-18T02:12:58.142Z,28.38
2022-10-18T02:14:12.530Z,28.85
2022-10-18T02:15:19.897Z,28.64
2022-10-18T02:16:44.400Z,29.01
2022-10-18T02:17:48.978Z,28.95
2022-10-18T02:19:07.895Z,29.07
2022-10-18T02:20:11.596Z,28.34
2022-10-18T02:21:18.259Z,28.94
2022-10-18T02:22:20.907Z,28.65
2022-10-18T02:23:24.666Z,28.92
2022-10-18T02:24:34.603Z,28.73
2022-10-18T02:25:37.066Z,28.39
2022-10-18T02:26:39.264Z,28.38
2022-10-18T02:27:41.338Z,29.14
2022-10-18T02:28:43.905Z,28.44
2022-10-18T02:29:46.337Z,29.15
2022-10-18T02:31:03.165Z,28.73
2022-10-18T02:32:26.346Z,28.59
2022-10-18T02:33:34.250Z,28.52
2022-10-18T02:34:41.297Z,28.48
2022-10-18T02:35:52.623Z,28.95
2022-10-18T02:36:58.039Z,28.49
2022-10-18T02:38:00.318Z,28.77
2022-10-18T02:39:08.033Z,28.89
2022-10-18T02:40:10.854Z,28.83
2022-10-18T02:41:12.583Z,29.31
2022-10-18T02:42:15.383Z,29.40
2022-10-18T02:43:17.163Z,28.58
2022-10-18T02:44:18.920Z,29.01
2022-10-18T02:45:21.167Z,28.68
2022-10-18T02:46:23.119Z,29.22
2022-10-18T02:47:24.799Z,29.02
2022-10-18T02:48:26.548Z,28.81
2022-10-18T02:49:28.227Z,28.54
2022-10-18T02:50:29.891Z,29.36
2022-10-18T02:51:32.042Z,29.28
2022-10-18T02:52:33.774Z,28.75
2022-10-18T02:53:35.538Z,28.77
2022-10-18T02:54:37.225Z,28.84
2022-10-18T02:55:38.946Z,28.57
2022-10-18T02:56:40.721Z,29.09
2022-10-18T02:57:42.618Z,29.26
2022-10-18T02:58:44.418Z,29.08
2022-10-18T02:59:46.170Z,28.81
2022-10-18T03:00:50.704Z,28.88
2022-10-18T03:01:52.410Z,29.08
2022-10-18T03:02:54.900Z,29.22
2022-10-18T03:03:57.474Z,29.33
2022-10-18T03:04:59.243Z,28.80
2022-10-18T03:06:00.940Z,29.17
2022-10-18T03:07:02.775Z,28.77
2022-10-18T03:08:04.807Z,28.59
2022-10-18T03:09:07.077Z,28.68
2022-10-18T03:10:09.078Z,28.91
2022-10-18T03:11:10.991Z,28.60
2022-10-18T03:12:13.123Z,29.24
2022-10-18T03:13:14.792Z,28.68
2022-10-18T03:14:16.534Z,29.06
2022-10-18T03:15:18.325Z,29.36
2022-10-18T03:16:20.026Z,29.40
2022-10-18T03:17:21.691Z,28.69
2022-10-18T03:18:23.427Z,28.87
2022-10-18T03:19:25.154Z,28.93
2022-10-18T03:20:26.947Z,28.96
2022-10-18T03:21:28.640Z,29.30
2022-10-18T03:22:30.381Z,29.22
2022-10-18T03:23:32.212Z,29.44
2022-10-18T03:24:33.957Z,28.74
2022-10-18T03:25:35.672Z,28.91
2022-10-18T03:26:37.446Z,28.86
2022-10-18T03:27:39.199Z,28.88
2022-10-18T03:28:40.921Z,29.26
2022-10-18T03:29:42.740Z,28.83
2022-10-18T03:30:44.500Z,29.36
2022-10-18T03:31:46.276Z,28.82
2022-10-18T03:32:48.055Z,28.71
2022-10-18T03:33:49.891Z,28.71
2022-10-18T03:34:51.650Z,28.66
2022-10-18T03:35:53.734Z,29.37
2022-10-18T03:36:55.459Z,29.38
2022-10-18T03:37:57.171Z,29.43
2022-10-18T03:38:59.003Z,28.83
2022-10-18T03:40:00.807Z,29.22
2022-10-18T03:41:02.536Z,28.75
2022-10-18T03:42:04.298Z,28.90
2022-10-18T03:43:05.992Z,29.14
2022-10-18T03:44:07.735Z,28.94
2022-10-18T03:45:10.121Z,29.39
2022-10-18T03:46:11.903Z,29.44
2022-10-18T03:47:13.751Z,29.14
2022-10-18T03:48:15.547Z,29.27
2022-10-18T03:49:17.319Z,29.44
2022-10-18T03:50:19.184Z,29.22
2022-10-18T03:51:20.902Z,29.44
2022-10-18T03:52:22.579Z,29.30
2022-10-18T03:53:24.261Z,28.88
2022-10-18T03:54:26.075Z,28.66
2022-10-18T03:55:27.739Z,29.39
2022-10-18T03:56:29.414Z,29.45
2022-10-18T03:57:31.219Z,29.45
2022-10-18T03:59:35.618Z,29.17
2022-10-18T04:00:37.586Z,29.41
2022-10-18T04:01:39.491Z,28.71
2022-10-18T04:02:41.363Z,28.93
2022-10-18T04:03:43.054Z,29.26
2022-10-18T04:04:44.843Z,28.77
2022-10-18T04:05:47.539Z,28.94
2022-10-18T04:06:49.419Z,29.36
2022-10-18T04:07:51.155Z,29.31
2022-10-18T04:08:52.863Z,29.27
2022-10-18T04:09:54.533Z,28.69
2022-10-18T04:10:57.203Z,29.42
2022-10-18T04:11:59.070Z,28.89
2022-10-18T04:13:00.887Z,28.79
2022-10-18T04:14:02.599Z,28.80
2022-10-18T04:15:04.535Z,29.59
2022-10-18T04:16:06.447Z,29.23
2022-10-18T04:17:08.203Z,28.92
2022-10-18T04:18:09.903Z,29.30
2022-10-18T04:19:11.638Z,29.03
2022-10-18T04:20:13.745Z,28.81
2022-10-18T04:21:15.458Z,29.33
2022-10-18T04:22:17.191Z,28.78
2022-10-18T04:23:18.930Z,29.36
2022-10-18T04:24:20.730Z,29.53
2022-10-18T04:25:22.525Z,29.51
2022-10-18T04:26:24.236Z,28.97
2022-10-18T04:27:25.958Z,29.23
2022-10-18T04:28:27.824Z,29.29
2022-10-18T04:29:29.507Z,28.75
2022-10-18T04:30:31.224Z,29.41
2022-10-18T04:31:33.056Z,28.78
2022-10-18T04:32:35.575Z,29.27
2022-10-18T04:33:37.892Z,28.93
2022-10-18T04:34:39.618Z,29.44
2022-10-18T04:35:41.387Z,29.54
2022-10-18T04:36:43.222Z,29.27
2022-10-18T04:37:44.924Z,28.91
2022-10-18T04:38:46.836Z,28.74
2022-10-18T04:39:51.322Z,29.01
2022-10-18T04:40:55.402Z,28.61
2022-10-18T04:41:57.197Z,29.35
2022-10-18T04:42:58.890Z,28.69
2022-10-18T04:44:00.627Z,29.30
2022-10-18T04:45:02.396Z,29.02
2022-10-18T04:46:04.182Z,29.11
2022-10-18T04:47:06.117Z,29.47
2022-10-18T04:48:08.103Z,29.40
2022-10-18T04:49:09.835Z,29.52
2022-10-18T04:50:11.502Z,28.99
2022-10-18T04:51:13.437Z,29.09
2022-10-18T04:52:15.119Z,28.82
2022-10-18T04:53:17.850Z,28.84
2022-10-18T04:54:20.383Z,29.28
2022-10-18T04:55:23.767Z,29.53
2022-10-18T04:56:25.544Z,28.75
2022-10-18T04:57:27.391Z,29.54
2022-10-18T04:58:29.120Z,28.84
2022-10-18T04:59:30.853Z,29.62
2022-10-18T05:00:36.458Z,29.10
2022-10-18T05:01:40.865Z,28.75
2022-10-18T05:02:42.678Z,29.23
2022-10-18T05:03:44.696Z,29.07
2022-10-18T05:04:46.354Z,29.06
2022-10-18T05:06:01.387Z,29.21
2022-10-18T05:07:06.099Z,29.33
2022-10-18T05:08:07.969Z,28.87
2022-10-18T05:09:09.777Z,29.36
2022-10-18T05:10:11.526Z,29.60
2022-10-18T05:11:13.420Z,28.96
2022-10-18T05:12:15.271Z,29.55
2022-10-18T05:13:17.241Z,29.53
2022-10-18T05:14:19.137Z,28.90
2022-10-18T05:15:20.843Z,29.28
2022-10-18T05:16:22.680Z,29.39
2022-10-18T05:17:24.450Z,28.96
2022-10-18T05:18:26.206Z,28.98
2022-10-18T05:19:27.873Z,29.43
2022-10-18T05:20:29.731Z,28.81
2022-10-18T05:21:31.578Z,28.73
2022-10-18T05:22:33.525Z,28.45
2022-10-18T05:23:35.510Z,28.96
2022-10-18T05:24:37.227Z,28.61
2022-10-18T05:25:40.093Z,28.77
2022-10-18T05:26:41.763Z,28.36
2022-10-18T05:27:43.495Z,28.97
2022-10-18T05:28:45.201Z,28.71
2022-10-18T05:29:46.981Z,28.38
2022-10-18T05:30:48.733Z,28.55
2022-10-18T05:31:50.640Z,28.10
2022-10-18T05:32:52.336Z,28.11
2022-10-18T05:33:53.996Z,28.07
2022-10-18T05:34:55.750Z,28.67
2022-10-18T05:35:57.633Z,28.29
2022-10-18T05:36:59.783Z,28.03
2022-10-18T05:38:07.806Z,28.34
2022-10-18T05:39:09.650Z,28.14
2022-10-18T05:40:11.832Z,28.17
2022-10-18T05:41:14.280Z,28.42
2022-10-18T05:42:16.206Z,28.03
2022-10-18T05:43:17.927Z,27.74
2022-10-18T05:44:19.812Z,28.03
2022-10-18T05:45:21.512Z,27.66
2022-10-18T05:46:23.275Z,27.48
2022-10-18T05:47:25.036Z,28.35
2022-10-18T05:48:27.009Z,27.77
2022-10-18T05:49:28.675Z,27.39
2022-10-18T05:50:30.457Z,27.33
2022-10-18T05:51:32.346Z,28.15
2022-10-18T05:52:34.399Z,28.14
2022-10-18T05:53:37.746Z,28.10
2022-10-18T05:54:40.543Z,27.36
2022-10-18T05:55:42.255Z,27.67
2022-10-18T05:56:44.070Z,27.52
2022-10-18T05:57:50.350Z,27.77
2022-10-18T05:58:52.411Z,27.63
2022-10-18T05:59:54.223Z,27.53
2022-10-18T06:01:00.131Z,27.46
2022-10-18T06:02:02.544Z,27.30
2022-10-18T06:03:04.333Z,27.31
2022-10-18T06:04:06.581Z,27.94
2022-10-18T06:05:08.467Z,27.68
2022-10-18T06:06:11.926Z,27.66
2022-10-18T06:07:13.637Z,27.42
2022-10-18T06:08:15.447Z,27.99
2022-10-18T06:09:17.284Z,27.86
2022-10-18T06:10:19.046Z,27.95
2022-10-18T06:11:21.218Z,27.75
2022-10-18T06:12:23.067Z,27.54
2022-10-18T06:13:24.818Z,27.91
2022-10-18T06:14:26.611Z,27.41
2022-10-18T06:15:28.626Z,27.74
2022-10-18T06:16:32.612Z,28.01
2022-10-18T06:17:35.121Z,27.68
2022-10-18T06:18:37.776Z,27.79
2022-10-18T06:19:39.603Z,27.74
2022-10-18T06:20:41.315Z,27.59
2022-10-18T06:21:43.964Z,27.18
2022-10-18T06:22:45.659Z,27.78
2022-10-18T06:23:55.476Z,27.82
2022-10-18T06:24:57.377Z,27.44
2022-10-18T06:26:01.778Z,27.60
2022-10-18T06:27:08.930Z,27.58
2022-10-18T06:28:12.272Z,27.58
2022-10-18T06:29:14.302Z,27.24
2022-10-18T06:30:16.194Z,27.55
2022-10-18T06:31:18.518Z,27.51
2022-10-18T06:32:20.249Z,28.03
2022-10-18T06:33:22.034Z,27.84
2022-10-18T06:34:23.718Z,27.71
2022-10-18T06:35:25.393Z,28.01
2022-10-18T06:36:27.439Z,27.66
2022-10-18T06:37:30.703Z,27.80
2022-10-18T06:38:33.383Z,27.29
2022-10-18T06:39:35.103Z,27.26
2022-10-18T06:40:38.220Z,27.97
2022-10-18T06:41:40.068Z,27.53
2022-10-18T06:43:00.546Z,27.63
2022-10-18T06:44:15.395Z,27.16
2022-10-18T06:45:18.548Z,27.07
2022-10-18T06:46:20.306Z,27.13
2022-10-18T06:47:22.331Z,27.79
2022-10-18T06:48:24.508Z,27.89
2022-10-18T06:49:26.320Z,27.87
2022-10-18T06:50:28.142Z,27.48
2022-10-18T06:51:29.831Z,27.26
2022-10-18T06:52:31.686Z,27.97
2022-10-18T06:53:43.694Z,27.90
2022-10-18T06:54:50.425Z,27.13
2022-10-18T06:55:52.404Z,27.69
2022-10-18T06:56:57.765Z,27.39
2022-10-18T06:57:59.593Z,27.69
2022-10-18T06:59:01.873Z,27.75
2022-10-18T07:00:05.273Z,27.93
2022-10-18T07:01:16.038Z,27.97
2022-10-18T07:02:17.945Z,27.91
2022-10-18T07:03:20.735Z,27.68
2022-10-18T07:04:22.450Z,27.65
2022-10-18T07:05:24.392Z,27.73
2022-10-18T07:06:26.182Z,27.49
2022-10-18T07:07:31.659Z,27.44
2022-10-18T07:08:34.378Z,27.64
2022-10-18T07:09:36.123Z,27.52
2022-10-18T07:10:37.986Z,27.59
2022-10-18T07:11:39.719Z,27.24
2022-10-18T07:12:41.396Z,27.99
2022-10-18T07:13:43.221Z,27.44
2022-10-18T07:14:46.436Z,27.46
2022-10-18T07:15:48.243Z,27.60
2022-10-18T07:16:49.925Z,27.55
2022-10-18T07:17:51.656Z,27.84
2022-10-18T07:18:53.419Z,27.57
2022-10-18T07:19:55.793Z,27.96
2022-10-18T07:20:57.555Z,27.59
2022-10-18T07:21:59.231Z,27.85
2022-10-18T07:23:01.010Z,27.64
2022-10-18T07:24:02.799Z,27.63
2022-10-18T07:25:08.759Z,27.87
2022-10-18T07:26:15.751Z,27.25
2022-10-18T07:27:17.489Z,27.80
2022-10-18T07:28:19.250Z,27.68
2022-10-18T07:29:21.016Z,27.88
2022-10-18T07:30:22.687Z,27.46
2022-10-18T07:31:25.472Z,27.41
2022-10-18T07:32:27.227Z,27.61
2022-10-18T07:33:29.459Z,27.42
2022-10-18T07:34:31.161Z,27.39
2022-10-18T07:35:32.922Z,27.95
2022-10-18T07:36:35.071Z,27.64
2022-10-18T07:37:36.901Z,27.41
2022-10-18T07:38:38.814Z,27.68
2022-10-18T07:39:40.494Z,27.34
2022-10-18T07:40:42.180Z,28.17
2022-10-18T07:41:43.955Z,28.23
2022-10-18T07:42:45.650Z,27.51
2022-10-18T07:43:50.892Z,27.81
2022-10-18T07:44:52.681Z,27.91
2022-10-18T07:45:59.482Z,27.46
2022-10-18T07:47:01.143Z,28.00
2022-10-18T07:48:02.931Z,28.28
2022-10-18T07:49:04.784Z,27.58
2022-10-18T07:50:07.345Z,27.89
2022-10-18T07:51:09.930Z,27.60
2022-10-18T07:52:11.855Z,27.50
2022-10-18T07:53:13.697Z,27.77
2022-10-18T07:54:15.580Z,27.92
2022-10-18T07:55:17.425Z,27.73
2022-10-18T07:56:21.854Z,28.26
2022-10-18T07:57:23.632Z,28.10
2022-10-18T07:58:25.340Z,27.88
2022-10-18T07:59:27.059Z,27.73
2022-10-18T08:00:28.768Z,27.47
2022-10-18T08:01:30.604Z,27.59
2022-10-18T08:02:32.674Z,27.52
2022-10-18T08:03:35.767Z,27.75
2022-10-18T08:04:37.531Z,27.49
2022-10-18T08:05:39.265Z,27.64
2022-10-18T08:06:41.012Z,27.85
2022-10-18T08:07:42.695Z,28.28
2022-10-18T08:08:45.424Z,27.61
2022-10-18T08:09:47.122Z,27.61
2022-10-18T08:10:49.246Z,28.08
2022-10-18T08:11:50.975Z,28.38
2022-10-18T08:12:54.396Z,28.08
2022-10-18T08:13:56.126Z,28.01
2022-10-18T08:14:57.843Z,28.20
2022-10-18T08:16:04.581Z,27.73
2022-10-18T08:17:06.352Z,27.69
2022-10-18T08:18:08.446Z,27.85
2022-10-18T08:19:10.296Z,27.88
2022-10-18T08:20:26.493Z,27.80
2022-10-18T08:21:32.358Z,27.64
2022-10-18T08:22:34.039Z,27.95
2022-10-18T08:23:36.379Z,27.57
2022-10-18T08:24:38.142Z,27.54
2022-10-18T08:25:40.140Z,28.24
2022-10-18T08:26:42.122Z,27.79
2022-10-18T08:27:43.834Z,27.57
2022-10-18T08:28:53.729Z,28.04
2022-10-18T08:30:02.116Z,27.56
2022-10-18T08:31:06.028Z,28.13
2022-10-18T08:32:10.386Z,27.75
2022-10-18T08:33:12.126Z,28.23
2022-10-18T08:34:19.363Z,27.81
2022-10-18T08:35:21.496Z,27.85
2022-10-18T08:36:23.618Z,27.98
2022-10-18T08:37:25.402Z,27.64
2022-10-18T08:38:31.331Z,27.76
2022-10-18T08:39:33.099Z,27.62
2022-10-18T08:40:35.155Z,27.86
2022-10-18T08:41:36.954Z,28.07
2022-10-18T08:42:38.584Z,28.27
2022-10-18T08:44:06.382Z,28.13
2022-10-18T08:45:23.455Z,28.18
2022-10-18T08:46:33.970Z,27.68
2022-10-18T08:47:44.404Z,28.27
2022-10-18T08:48:50.832Z,28.04
2022-10-18T08:49:55.883Z,28.11
2022-10-18T08:50:58.756Z,27.76
2022-10-18T08:52:00.663Z,27.72
2022-10-18T08:53:17.632Z,28.18
2022-10-18T08:54:37.690Z,27.45
2022-10-18T08:55:54.947Z,27.62
2022-10-18T08:57:02.477Z,27.62
2022-10-18T08:58:20.941Z,27.82
2022-10-18T08:59:25.415Z,27.44
2022-10-18T09:00:31.286Z,27.45
2022-10-18T09:01:36.235Z,27.51
2022-10-18T09:03:00.419Z,27.92
2022-10-18T09:04:20.665Z,27.98
2022-10-18T09:05:36.567Z,27.19
2022-10-18T09:06:53.314Z,28.04
2022-10-18T09:08:35.588Z,27.92
2022-10-18T09:09:41.374Z,27.83
2022-10-18T09:11:04.082Z,27.33
2022-10-18T09:12:24.027Z,27.96
2022-10-18T09:13:44.119Z,27.88
2022-10-18T09:14:56.724Z,27.92
2022-10-18T09:16:04.892Z,27.34
2022-10-18T09:17:15.861Z,27.21
2022-10-18T09:18:28.622Z,27.54
2022-10-18T09:19:55.010Z,28.00
2022-10-18T09:20:59.411Z,27.14
2022-10-18T09:22:12.447Z,27.60
2022-10-18T09:23:47.913Z,27.80
2022-10-18T09:24:49.640Z,27.07
2022-10-18T09:26:03.415Z,27.82
2022-10-18T09:27:12.374Z,27.74
2022-10-18T09:28:16.093Z,27.41
2022-10-18T09:29:40.059Z,27.39
2022-10-18T09:30:45.656Z,27.91
2022-10-18T09:32:04.763Z,27.59
2022-10-18T09:33:12.323Z,27.09
2022-10-18T09:34:51.174Z,26.97
2022-10-18T09:36:06.386Z,27.86
2022-10-18T09:37:20.957Z,27.57
2022-10-18T09:38:28.641Z,27.74
2022-10-18T09:39:35.501Z,27.35
2022-10-18T09:40:48.753Z,27.39
2022-10-18T09:41:57.984Z,27.48
2022-10-18T09:43:16.274Z,27.49
2022-10-18T09:44:29.188Z,27.19
2022-10-18T09:45:43.046Z,27.12
2022-10-18T09:46:55.512Z,27.16
2022-10-18T09:48:08.607Z,27.17
2022-10-18T09:49:23.575Z,27.81
2022-10-18T09:50:35.329Z,27.14
2022-10-18T09:51:42.166Z,27.47
2022-10-18T09:53:19.371Z,27.37
2022-10-18T09:54:55.088Z,26.84
2022-10-18T09:56:06.645Z,27.50
2022-10-18T09:57:25.469Z,27.61
2022-10-18T09:58:34.387Z,27.69
2022-10-18T09:59:41.502Z,27.66
2022-10-18T10:00:52.790Z,27.07
2022-10-18T10:01:54.614Z,27.74
2022-10-18T10:02:56.383Z,27.67
2022-10-18T10:03:58.083Z,27.55
2022-10-18T10:04:59.830Z,27.78
2022-10-18T10:06:11.552Z,27.27
2022-10-18T10:07:19.756Z,27.65
2022-10-18T10:08:33.796Z,27.07
2022-10-18T10:09:49.061Z,27.34
2022-10-18T10:10:50.739Z,27.11
2022-10-18T10:11:52.836Z,27.00
2022-10-18T10:13:17.672Z,27.81
2022-10-18T10:14:26.260Z,27.29
2022-10-18T10:15:31.278Z,27.29
2022-10-18T10:17:02.637Z,27.03
2022-10-18T10:18:20.539Z,27.33
2022-10-18T10:19:32.332Z,27.11
2022-10-18T10:20:42.886Z,26.65
2022-10-18T10:21:45.047Z,26.74
2022-10-18T10:22:48.096Z,27.02
2022-10-18T10:23:55.996Z,26.79
2022-10-18T10:24:57.864Z,27.46
2022-10-18T10:26:02.767Z,26.88
2022-10-18T10:27:14.858Z,26.95
2022-10-18T10:28:20.458Z,26.82
2022-10-18T10:29:49.300Z,26.84
2022-10-18T10:30:51.224Z,26.86
2022-10-18T10:32:04.141Z,26.93
2022-10-18T10:33:07.162Z,27.41
2022-10-18T10:34:14.967Z,27.21
2022-10-18T10:35:42.101Z,26.96
2022-10-18T10:36:53.583Z,26.99
2022-10-18T10:37:55.363Z,27.06
2022-10-18T10:39:13.856Z,27.44
2022-10-18T10:40:19.248Z,27.42
2022-10-18T10:41:23.929Z,27.14
2022-10-18T10:42:25.843Z,27.50
2022-10-18T10:43:39.756Z,26.60
2022-10-18T10:44:54.535Z,26.81
2022-10-18T10:46:20.339Z,26.85
2022-10-18T10:47:32.042Z,26.53
2022-10-18T10:48:41.456Z,26.95
2022-10-18T10:49:47.710Z,26.72
2022-10-18T10:51:10.111Z,26.53
2022-10-18T10:52:28.755Z,26.63
2022-10-18T10:53:35.703Z,26.63
2022-10-18T10:54:39.171Z,26.57
2022-10-18T10:55:40.904Z,27.29
2022-10-18T10:57:01.332Z,27.32
2022-10-18T10:58:03.162Z,27.04
2022-10-18T10:59:17.479Z,26.86
2022-10-18T11:00:34.302Z,27.24
2022-10-18T11:01:36.647Z,26.55
2022-10-18T11:02:38.599Z,27.10
2022-10-18T11:03:47.159Z,26.58
2022-10-18T11:04:54.656Z,26.69
2022-10-18T11:05:58.050Z,27.11
2022-10-18T11:07:02.813Z,26.70
2022-10-18T11:08:05.548Z,26.97
2022-10-18T11:09:18.234Z,27.38
2022-10-18T11:10:24.593Z,26.46
2022-10-18T11:11:35.051Z,26.90
2022-10-18T11:12:38.571Z,26.71
2022-10-18T11:14:01.582Z,27.17
2022-10-18T11:15:28.689Z,26.56
2022-10-18T11:16:39.486Z,26.40
2022-10-18T11:17:47.699Z,26.90
2022-10-18T11:18:52.813Z,27.17
2022-10-18T11:20:36.902Z,26.74
2022-10-18T11:21:40.244Z,26.95
2022-10-18T11:22:49.589Z,26.57
2022-10-18T11:23:51.538Z,27.07
2022-10-18T11:24:53.347Z,27.04
2022-10-18T11:26:28.799Z,26.54
2022-10-18T11:27:55.139Z,26.69
2022-10-18T11:29:31.307Z,26.65
2022-10-18T11:30:48.839Z,26.79
2022-10-18T11:32:02.610Z,26.87
2022-10-18T11:33:16.400Z,26.31
2022-10-18T11:34:30.018Z,26.99
2022-10-18T11:36:04.697Z,26.35
2022-10-18T11:37:32.132Z,26.63
2022-10-18T11:38:45.542Z,26.16
2022-10-18T11:40:22.362Z,26.15
2022-10-18T11:41:38.462Z,26.98
2022-10-18T11:43:18.775Z,26.99
2022-10-18T11:44:40.210Z,26.44
2022-10-18T11:46:04.742Z,26.12
2022-10-18T11:47:23.371Z,26.67
2022-10-18T11:48:52.520Z,26.90
2022-10-18T11:50:13.378Z,26.20
2022-10-18T11:51:34.047Z,26.27
2022-10-18T11:53:27.742Z,26.16
2022-10-18T11:54:53.574Z,26.09
2022-10-18T11:56:34.814Z,26.71
2022-10-18T11:57:36.486Z,26.19
2022-10-18T11:58:56.947Z,26.31
2022-10-18T12:00:22.659Z,26.92
2022-10-18T12:01:38.071Z,26.94
2022-10-18T12:02:51.154Z,26.53
2022-10-18T12:04:04.861Z,26.67
2022-10-18T12:05:24.509Z,26.70
2022-10-18T12:06:32.858Z,26.73
2022-10-18T12:07:49.124Z,27.03
2022-10-18T12:09:00.232Z,26.80
2022-10-18T12:10:04.477Z,26.21
2022-10-18T12:11:15.997Z,26.60
2022-10-18T12:12:31.662Z,26.48
2022-10-18T12:13:40.567Z,26.49
2022-10-18T12:14:59.426Z,26.52
2022-10-18T12:16:05.931Z,26.60
2022-10-18T12:17:49.627Z,26.55
2022-10-18T12:20:29.972Z,26.23
2022-10-18T12:21:34.355Z,25.97
2022-10-18T12:22:43.140Z,26.48
2022-10-18T12:23:47.895Z,26.23
2022-10-18T12:24:49.824Z,26.49
2022-10-18T12:25:55.785Z,26.36
2022-10-18T12:27:00.466Z,27.13
2022-10-18T12:28:16.588Z,26.96
2022-10-18T12:29:38.543Z,26.47
2022-10-18T12:30:51.267Z,26.47
2022-10-18T12:32:08.962Z,26.48
2022-10-18T12:33:27.881Z,26.82
2022-10-18T12:34:43.646Z,26.43
2022-10-18T12:35:53.733Z,26.83
2022-10-18T12:38:19.928Z,26.77
2022-10-18T12:40:09.379Z,26.18
2022-10-18T12:41:33.603Z,25.97
2022-10-18T12:42:42.878Z,25.92
2022-10-18T12:43:52.019Z,25.84
2022-10-18T12:45:24.917Z,26.15
2022-10-18T12:46:44.847Z,26.17
2022-10-18T12:47:46.752Z,25.93
2022-10-18T12:49:03.974Z,26.44
2022-10-18T12:50:23.195Z,26.43
2022-10-18T12:51:25.114Z,26.05
2022-10-18T12:52:29.963Z,26.17
2022-10-18T12:53:32.682Z,26.19
2022-10-18T12:54:37.247Z,26.32
2022-10-18T12:55:46.250Z,25.84
2022-10-18T12:56:48.383Z,26.31
2022-10-18T12:57:53.222Z,25.90
2022-10-18T12:59:17.078Z,25.94
2022-10-18T13:00:31.106Z,26.37
2022-10-18T13:01:51.022Z,26.06
2022-10-18T13:03:18.567Z,26.04
2022-10-18T13:04:29.373Z,26.31
2022-10-18T13:06:04.304Z,26.23
2022-10-18T13:07:08.373Z,25.61
2022-10-18T13:08:28.152Z,25.83
2022-10-18T13:09:31.159Z,26.49
2022-10-18T13:10:35.335Z,26.57
2022-10-18T13:11:37.252Z,26.04
2022-10-18T13:13:38.177Z,26.56
2022-10-18T13:15:24.821Z,26.02
2022-10-18T13:16:54.831Z,25.93
2022-10-18T13:18:04.370Z,26.23
2022-10-18T13:19:21.215Z,26.01
2022-10-18T13:20:44.123Z,26.53
2022-10-18T13:22:07.543Z,25.69
2022-10-18T13:23:18.256Z,26.17
2022-10-18T13:24:26.189Z,25.87
2022-10-18T13:25:46.550Z,26.28
2022-10-18T13:28:35.541Z,25.74
2022-10-18T13:30:00.322Z,25.88
2022-10-18T13:31:39.583Z,26.24
2022-10-18T13:32:47.200Z,26.17
2022-10-18T13:33:49.686Z,26.35
2022-10-18T13:34:51.547Z,26.45
2022-10-18T13:36:00.951Z,26.12
2022-10-18T13:37:18.799Z,25.71
2022-10-18T13:38:30.766Z,26.22
2022-10-18T13:39:33.560Z,26.08
2022-10-18T13:40:35.582Z,26.10
2022-10-18T13:41:43.369Z,26.44
2022-10-18T13:42:51.196Z,25.59
2022-10-18T13:43:53.092Z,26.38
2022-10-18T13:44:54.872Z,26.08
2022-10-18T13:45:56.613Z,26.25
2022-10-18T13:46:58.301Z,25.81
2022-10-18T13:48:35.684Z,26.13
2022-10-18T13:50:10.969Z,25.90
2022-10-18T13:51:28.676Z,25.69
2022-10-18T13:52:50.958Z,25.48
2022-10-18T13:54:14.176Z,26.11
2022-10-18T13:55:30.990Z,26.09
2022-10-18T13:56:57.289Z,25.84
2022-10-18T13:58:24.723Z,25.78
2022-10-18T13:59:38.697Z,26.00
2022-10-18T14:01:02.343Z,26.05
2022-10-18T14:02:50.368Z,25.64
2022-10-18T14:04:38.050Z,25.97
2022-10-18T14:06:04.709Z,25.22
2022-10-18T14:07:09.000Z,25.91
2022-10-18T14:08:18.978Z,25.32
2022-10-18T14:09:43.765Z,26.00
2022-10-18T14:11:04.498Z,25.60
2022-10-18T14:12:14.835Z,25.53
2022-10-18T14:13:26.681Z,26.13
2022-10-18T14:14:41.870Z,25.86
2022-10-18T14:15:45.902Z,26.03
2022-10-18T14:17:15.515Z,25.94
2022-10-18T14:18:30.130Z,25.66
2022-10-18T14:19:41.886Z,25.63
2022-10-18T14:21:08.630Z,26.03
2022-10-18T14:22:18.686Z,25.76
2022-10-18T14:23:42.579Z,25.50
2022-10-18T14:24:48.563Z,26.11
2022-10-18T14:25:50.323Z,26.20
2022-10-18T14:27:12.977Z,25.53
2022-10-18T14:28:31.493Z,25.41
2022-10-18T14:29:44.075Z,25.27
2022-10-18T14:31:08.452Z,25.79
2022-10-18T14:32:22.019Z,25.44
2022-10-18T14:33:28.268Z,25.71
2022-10-18T14:34:30.011Z,25.45
2022-10-18T14:35:35.794Z,25.89
2022-10-18T14:36:41.154Z,25.39
2022-10-18T14:37:43.512Z,25.57
2022-10-18T14:39:06.091Z,25.70
2022-10-18T14:40:26.485Z,25.57
2022-10-18T14:41:33.462Z,25.63
2022-10-18T14:42:35.167Z,25.90
2022-10-18T14:43:37.019Z,25.96